Time;durP1;ratioP1;P1;durP2;ratioP2;P2;SDS_P1;SDS_P2;PMS_P1;PMS_P2;Temp;Humidity;BMP_temperature;BMP_pressure;BME280_temperature;BME280_humidity;BME280_pressure;Samples;Min_cycle;Max_cycle;Signal;HPM_P1;HPM_P2
2023/01/13 00:01:14;;;;;;;6.97;1.70;;;;;;;11.55;81.64;98462.66;5010646;28;20209;-80
2023/01/13 00:03:41;;;;;;;7.40;1.80;;;;;;;11.58;81.49;98451.03;5010512;28;20045;-81
2023/01/13 00:06:12;;;;;;;6.10;1.60;;;;;;;11.56;80.82;98453.78;5010362;28;20062;-80
2023/01/13 00:08:39;;;;;;;6.25;2.28;;;;;;;11.59;81.46;98442.16;4992986;28;20062;-80
2023/01/13 00:11:05;;;;;;;7.40;1.98;;;;;;;11.60;81.74;98439.38;5010678;28;20140;-80
2023/01/13 00:13:34;;;;;;;7.10;2.47;;;;;;;11.62;81.71;98438.44;5010403;28;20054;-79
2023/01/13 00:16:05;;;;;;;3.17;1.20;;;;;;;11.60;80.63;98417.47;5010347;28;20061;-80
2023/01/13 00:18:32;;;;;;;5.50;1.75;;;;;;;11.60;81.27;98431.47;5010188;28;20062;-80
2023/01/13 00:21:05;;;;;;;7.38;2.08;;;;;;;11.59;79.76;98426.38;5010580;28;20054;-80
2023/01/13 00:23:33;;;;;;;5.93;1.70;;;;;;;11.60;80.94;98431.47;4993096;28;20104;-80
2023/01/13 00:26:09;;;;;;;8.40;1.63;;;;;;;11.59;80.61;98443.00;5010177;28;20050;-80
2023/01/13 00:28:36;;;;;;;5.63;1.45;;;;;;;11.62;81.00;98449.00;5010398;28;20058;-80
2023/01/13 00:31:07;;;;;;;3.75;1.30;;;;;;;11.59;79.86;98456.16;4992733;28;20049;-81
2023/01/13 00:33:35;;;;;;;4.45;1.48;;;;;;;11.60;80.72;98430.66;4993042;28;20064;-80
2023/01/13 00:36:03;;;;;;;3.70;1.30;;;;;;;11.59;80.23;98444.81;4992614;28;20136;-80
2023/01/13 00:38:33;;;;;;;3.92;1.30;;;;;;;11.56;79.78;98432.69;5010138;28;20061;-80
2023/01/13 00:41:03;;;;;;;4.53;1.40;;;;;;;11.57;79.25;98441.44;5010088;28;20485;-80
2023/01/13 00:45:55;;;;;;;6.87;1.90;;;;;;;11.53;79.38;98453.19;4987019;22;20125;-84
2023/01/13 00:48:26;;;;;;;6.15;1.40;;;;;;;11.53;79.65;98461.97;5014928;28;20057;-84
2023/01/13 00:51:26;;;;;;;5.93;1.75;;;;;;;11.49;76.98;98455.25;5026076;28;20050;-83
2023/01/13 00:53:52;;;;;;;9.55;1.45;;;;;;;11.51;78.76;98457.78;4991142;28;20154;-83
2023/01/13 00:56:23;;;;;;;10.30;1.70;;;;;;;11.49;78.40;98450.00;5012592;28;20084;-84
2023/01/13 00:59:05;;;;;;;5.60;1.55;;;;;;;11.50;79.45;98446.38;4997693;28;20092;-83
2023/01/13 01:01:32;;;;;;;6.07;1.92;;;;;;;11.48;79.24;98445.69;4995060;28;20415;-84
2023/01/13 01:03:59;;;;;;;5.80;1.92;;;;;;;11.47;78.87;98446.63;4995108;28;20061;-84
2023/01/13 01:06:33;;;;;;;7.97;2.03;;;;;;;11.44;78.90;98455.63;4994942;28;20053;-84
2023/01/13 01:09:00;;;;;;;5.72;2.08;;;;;;;11.41;78.54;98481.41;4995092;28;20062;-84
2023/01/13 01:11:31;;;;;;;8.32;2.42;;;;;;;11.38;77.80;98439.47;5012199;28;20111;-84
2023/01/13 01:14:01;;;;;;;9.60;2.15;;;;;;;11.36;78.59;98458.03;4994801;28;20420;-84
2023/01/13 01:16:30;;;;;;;10.38;2.35;;;;;;;11.36;78.71;98455.41;5012267;28;20054;-83
2023/01/13 01:18:58;;;;;;;10.00;2.28;;;;;;;11.35;78.69;98451.13;5012211;28;20061;-83
2023/01/13 01:21:27;;;;;;;6.68;2.42;;;;;;;11.34;78.63;98445.00;5012135;28;20057;-84
2023/01/13 01:23:54;;;;;;;7.43;2.08;;;;;;;11.32;78.04;98475.06;5012084;28;20148;-84
2023/01/13 01:26:22;;;;;;;10.68;2.42;;;;;;;11.30;78.01;98467.31;4994612;28;20534;-84
2023/01/13 01:28:50;;;;;;;11.15;2.78;;;;;;;11.31;78.23;98453.16;5012134;28;20060;-84
2023/01/13 01:31:22;;;;;;;10.60;2.65;;;;;;;11.32;78.10;98468.00;5012157;28;20052;-84
2023/01/13 01:33:48;;;;;;;8.05;2.15;;;;;;;11.30;78.21;98464.69;4994583;28;20069;-84
2023/01/13 01:36:18;;;;;;;10.80;2.47;;;;;;;11.30;77.95;98469.09;4994454;28;20069;-84
2023/01/13 01:38:45;;;;;;;11.70;2.63;;;;;;;11.28;77.82;98469.22;5012170;28;20628;-84
2023/01/13 01:41:18;;;;;;;6.50;2.30;;;;;;;11.24;76.42;98469.56;4994547;28;20054;-83
2023/01/13 01:44:01;;;;;;;6.72;2.85;;;;;;;11.23;76.07;98476.66;5011560;28;20522;-83
2023/01/13 01:46:29;;;;;;;8.02;2.15;;;;;;;11.24;76.73;98488.00;4994364;28;20068;-84
2023/01/13 01:49:08;;;;;;;10.75;2.78;;;;;;;11.19;74.47;98486.63;4993991;28;20135;-84
2023/01/13 01:51:44;;;;;;;12.35;2.90;;;;;;;11.15;75.10;98487.81;5011801;28;20050;-83
2023/01/13 01:54:16;;;;;;;8.70;2.45;;;;;;;11.11;75.31;98494.28;5011581;28;20062;-83
2023/01/13 01:56:44;;;;;;;11.38;2.72;;;;;;;11.10;76.92;98494.41;5010701;28;20105;-84
2023/01/13 01:59:11;;;;;;;5.75;2.28;;;;;;;11.05;76.84;98487.72;5011416;28;20058;-83
2023/01/13 02:01:39;;;;;;;11.52;2.95;;;;;;;11.00;76.34;98500.41;4994026;28;20065;-84
2023/01/13 02:04:15;;;;;;;14.10;2.92;;;;;;;10.98;74.49;98501.50;5011181;28;20141;-83
2023/01/13 02:06:44;;;;;;;15.57;3.20;;;;;;;10.95;76.06;98498.13;5011271;28;20057;-83
2023/01/13 02:09:15;;;;;;;16.48;3.08;;;;;;;10.95;76.66;98498.13;5011503;28;20083;-83
2023/01/13 02:14:29;;;;;;;12.30;3.03;;;;;;;10.90;75.76;98500.28;5011315;28;20062;-83
2023/01/13 02:17:20;;;;;;;15.30;3.53;;;;;;;10.81;73.61;98512.38;5011042;28;20065;-83
2023/01/13 02:20:17;;;;;;;11.60;2.97;;;;;;;10.80;72.21;98504.59;4993604;28;20119;-83
2023/01/13 02:24:52;;;;;;;16.98;3.13;;;;;;;10.75;71.38;98501.47;5011241;28;20073;-83
2023/01/13 02:26:26;;;;;;;14.20;3.05;;;;;;;10.75;74.26;98512.00;5010659;28;20505;-83
2023/01/13 02:32:15;;;;;;;15.10;3.17;;;;;;;10.67;72.18;98521.34;5010795;28;20497;-83
2023/01/13 02:34:52;;;;;;;12.30;3.10;;;;;;;10.65;73.38;98506.66;4993223;28;20064;-83
2023/01/13 02:37:27;;;;;;;18.63;3.17;;;;;;;10.66;75.50;98503.06;5010923;28;20062;-83
2023/01/13 02:40:23;;;;;;;13.70;2.55;;;;;;;10.62;73.52;98520.84;4993658;28;20065;-83
2023/01/13 02:46:08;;;;;;;17.98;3.50;;;;;;;10.58;74.94;98506.25;5010394;28;20591;-83
2023/01/13 02:48:36;;;;;;;17.33;3.47;;;;;;;10.60;76.05;98499.09;4993147;28;20472;-83
2023/01/13 02:51:15;;;;;;;12.00;3.08;;;;;;;10.58;74.57;98505.44;5010608;28;20073;-83
2023/01/13 02:53:49;;;;;;;19.42;3.72;;;;;;;10.57;74.46;98496.69;5010499;28;20500;-83
2023/01/13 02:56:16;;;;;;;22.98;3.50;;;;;;;10.59;76.13;98491.31;5010258;28;20563;-83
2023/01/13 02:58:45;;;;;;;11.13;3.03;;;;;;;10.57;76.25;98498.50;5010516;28;20069;-83
2023/01/13 03:01:12;;;;;;;15.82;3.50;;;;;;;10.59;76.74;98486.06;5010264;28;20471;-83
2023/01/13 03:03:39;;;;;;;17.70;3.30;;;;;;;10.57;76.46;98495.88;5010261;28;20049;-82
2023/01/13 03:06:36;;;;;;;17.98;3.30;;;;;;;10.53;74.16;98493.47;4992554;28;20054;-82
2023/01/13 03:09:15;;;;;;;18.10;3.55;;;;;;;10.54;74.09;98491.66;5010553;28;20062;-83
2023/01/13 03:12:08;;;;;;;16.25;3.75;;;;;;;10.53;74.07;98497.88;5010349;28;20137;-83
2023/01/13 03:14:40;;;;;;;20.45;4.60;;;;;;;10.54;76.05;98478.50;5010084;28;20178;-83
2023/01/13 03:17:15;;;;;;;16.60;3.75;;;;;;;10.56;76.53;98492.41;4992511;28;20058;-83
2023/01/13 03:20:04;;;;;;;24.00;4.20;;;;;;;10.52;75.39;98486.53;5010206;28;20053;-83
2023/01/13 03:22:38;;;;;;;21.13;4.00;;;;;;;10.52;76.06;98481.28;5010066;28;20124;-83
2023/01/13 03:25:17;;;;;;;21.13;4.57;;;;;;;10.45;73.03;98485.34;5010211;28;20066;-82
2023/01/13 03:28:09;;;;;;;15.90;2.95;;;;;;;10.46;75.04;98473.84;5010026;28;20049;-83
2023/01/13 03:30:43;;;;;;;32.17;4.38;;;;;;;10.42;74.84;98475.84;4992547;28;20056;-82
2023/01/13 03:33:21;;;;;;;19.33;3.72;;;;;;;10.41;74.76;98476.81;5009925;28;20647;-82
2023/01/13 03:35:54;;;;;;;17.83;3.60;;;;;;;10.42;75.16;98477.63;4992249;28;20069;-83
2023/01/13 03:38:24;;;;;;;;;;;;;;;10.40;70.95;98474.31;5010510;28;20085;-83
2023/01/13 03:40:55;;;;;;;19.95;4.47;;;;;;;10.42;73.37;98486.38;4992413;28;19983;-82
2023/01/13 03:46:45;;;;;;;20.50;3.88;;;;;;;10.37;72.87;98477.16;5009997;28;20139;-83
2023/01/13 03:49:24;;;;;;;27.15;4.30;;;;;;;10.36;72.43;98480.75;5003647;28;20058;-82
2023/01/13 03:51:55;;;;;;;19.35;3.78;;;;;;;10.35;72.56;98494.88;5009833;28;20054;-83
2023/01/13 03:54:26;;;;;;;21.85;4.90;;;;;;;10.32;74.24;98474.06;5009921;28;20066;-82
2023/01/13 03:56:58;;;;;;;25.58;3.83;;;;;;;10.32;74.69;98484.56;5009683;28;20058;-83
2023/01/13 03:59:33;;;;;;;19.65;3.45;;;;;;;10.29;72.52;98493.53;5009915;28;20065;-83
2023/01/13 04:02:02;;;;;;;26.27;4.88;;;;;;;10.23;74.38;98472.94;5009457;28;20053;-83
2023/01/13 04:04:33;;;;;;;22.38;4.25;;;;;;;10.22;74.40;98458.97;4992227;28;20104;-83
2023/01/13 04:07:14;;;;;;;17.02;3.60;;;;;;;10.20;73.89;98453.00;5009514;28;20076;-83
2023/01/13 04:09:53;;;;;;;24.40;4.30;;;;;;;10.14;71.99;98446.41;5009857;28;20089;-82
2023/01/13 04:15:19;;;;;;;25.15;3.85;;;;;;;10.13;75.04;98433.41;5009498;28;20072;-82
2023/01/13 04:17:46;;;;;;;23.67;3.47;;;;;;;10.12;75.48;98450.09;5009471;28;20054;-82
2023/01/13 04:20:13;;;;;;;24.80;4.18;;;;;;;10.09;74.85;98476.66;5013156;28;20590;-82
2023/01/13 04:22:39;;;;;;;18.02;3.88;;;;;;;10.07;75.36;98461.00;5013123;28;20534;-82
2023/01/13 04:25:07;;;;;;;24.45;3.50;;;;;;;10.07;75.64;98461.00;5013418;28;20061;-82
2023/01/13 04:27:33;;;;;;;27.17;3.90;;;;;;;10.03;75.30;98449.03;4995655;28;20061;-82
2023/01/13 04:30:00;;;;;;;19.40;4.05;;;;;;;10.03;75.43;98449.84;5013361;28;20058;-82
2023/01/13 04:32:26;;;;;;;25.15;4.28;;;;;;;10.02;75.46;98452.63;5013206;28;20056;-82
2023/01/13 04:34:53;;;;;;;20.90;3.78;;;;;;;10.01;75.45;98456.19;5013159;28;20061;-82
2023/01/13 04:37:20;;;;;;;28.60;4.07;;;;;;;10.01;75.32;98445.66;4995535;28;20053;-82
2023/01/13 04:39:46;;;;;;;23.55;3.72;;;;;;;10.00;75.71;98450.09;5012821;28;20393;-82
2023/01/13 04:42:13;;;;;;;23.08;3.47;;;;;;;9.98;75.59;98443.28;5012956;28;20119;-82
2023/01/13 04:44:39;;;;;;;19.83;3.80;;;;;;;9.98;75.54;98446.72;4995241;28;20058;-82
2023/01/13 04:47:06;;;;;;;25.02;4.40;;;;;;;9.98;75.44;98441.47;5012757;28;20061;-82
2023/01/13 04:49:32;;;;;;;19.90;3.70;;;;;;;9.98;75.49;98438.84;5012803;28;20071;-82
2023/01/13 04:51:59;;;;;;;28.23;4.82;;;;;;;9.98;75.47;98441.47;4995251;28;20058;-82
2023/01/13 04:54:25;;;;;;;20.00;3.90;;;;;;;9.99;75.53;98443.16;5012630;28;20061;-82
2023/01/13 04:56:52;;;;;;;20.85;4.15;;;;;;;10.00;75.58;98446.63;5012637;28;20062;-82
2023/01/13 04:59:18;;;;;;;23.20;5.00;;;;;;;10.00;75.04;98450.09;4995026;28;20061;-81
2023/01/13 05:01:44;;;;;;;17.95;3.58;;;;;;;10.01;75.46;98438.63;5012626;28;20066;-82
2023/01/13 05:04:14;;;;;;;22.67;4.00;;;;;;;10.02;75.33;98436.84;5012524;28;20116;-82
2023/01/13 05:06:40;;;;;;;18.05;4.28;;;;;;;10.03;74.92;98423.56;4994749;28;20058;-82
2023/01/13 05:09:07;;;;;;;20.20;3.63;;;;;;;10.03;75.35;98413.03;4995144;28;20068;-82
2023/01/13 05:17:03;;;;;;;25.70;4.47;;;;;;;10.03;75.08;98425.38;5012018;28;20077;-82
2023/01/13 05:19:33;;;;;;;21.83;4.15;;;;;;;9.99;73.32;98427.38;5012203;28;20061;-82
2023/01/13 05:27:31;;;;;;;28.98;4.22;;;;;;;10.01;74.67;98414.13;5011916;28;20054;-83
2023/01/13 05:29:58;;;;;;;21.02;3.58;;;;;;;10.01;74.76;98408.84;5010711;28;20583;-82
2023/01/13 05:32:26;;;;;;;25.10;4.28;;;;;;;9.99;74.18;98406.34;5011925;28;20189;-82
2023/01/13 05:34:54;;;;;;;17.05;3.85;;;;;;;10.00;74.63;98417.72;4994623;28;20054;-82
2023/01/13 05:37:22;;;;;;;18.70;3.83;;;;;;;10.01;75.03;98414.97;4994338;28;20050;-82
2023/01/13 05:45:19;;;;;;;22.63;3.58;;;;;;;10.00;74.80;98404.56;5011459;28;20057;-82
2023/01/13 05:47:46;;;;;;;22.10;3.80;;;;;;;9.98;74.54;98407.31;5011631;28;20512;-82
2023/01/13 05:50:12;;;;;;;22.48;4.45;;;;;;;9.95;74.27;98404.94;4994163;28;20062;-82
2023/01/13 05:52:39;;;;;;;18.20;4.07;;;;;;;9.96;74.14;98425.00;5011441;28;20497;-82
2023/01/13 05:55:06;;;;;;;17.05;4.13;;;;;;;9.99;74.75;98424.75;5011714;28;20389;-82
2023/01/13 05:57:32;;;;;;;22.52;4.03;;;;;;;9.97;74.40;98426.66;4994182;28;20057;-82
2023/01/13 05:59:59;;;;;;;25.65;4.00;;;;;;;9.96;73.99;98427.63;5011787;28;20058;-82
2023/01/13 06:02:26;;;;;;;20.23;3.85;;;;;;;9.98;74.36;98409.13;5001849;28;20103;-82
2023/01/13 06:04:53;;;;;;;16.73;3.47;;;;;;;9.98;74.21;98419.63;5013224;28;20060;-82
2023/01/13 06:07:19;;;;;;;15.25;3.42;;;;;;;9.99;74.21;98423.94;5013082;28;20056;-82
2023/01/13 06:09:46;;;;;;;17.30;3.80;;;;;;;9.97;73.48;98425.81;5031155;28;20115;-82
2023/01/13 06:12:13;;;;;;;20.08;3.38;;;;;;;9.96;73.39;98427.63;5030961;28;20049;-82
2023/01/13 06:14:39;;;;;;;20.98;3.85;;;;;;;9.97;73.29;98418.78;5031072;28;20088;-82
2023/01/13 06:17:12;;;;;;;16.58;3.20;;;;;;;9.92;72.67;98423.56;5013035;28;20053;-82
2023/01/13 06:19:39;;;;;;;21.40;3.92;;;;;;;9.90;72.91;98421.03;5030849;28;20076;-82
2023/01/13 06:22:17;;;;;;;15.50;3.15;;;;;;;9.84;69.88;98418.03;5030779;28;20085;-82
2023/01/13 06:24:49;;;;;;;17.30;3.17;;;;;;;9.81;70.89;98426.16;5013286;28;20061;-82
2023/01/13 06:27:16;;;;;;;14.65;2.70;;;;;;;9.81;72.87;98413.00;5030460;28;20140;-82
2023/01/13 06:29:43;;;;;;;17.98;3.28;;;;;;;9.74;72.45;98424.00;5030838;28;20065;-82
2023/01/13 06:32:17;;;;;;;15.60;3.40;;;;;;;9.68;68.13;98445.47;5012814;28;20050;-82
2023/01/13 06:34:49;;;;;;;13.77;2.58;;;;;;;9.69;71.28;98425.28;5026273;28;20065;-82
2023/01/13 06:37:20;;;;;;;11.65;2.70;;;;;;;9.66;70.61;98439.50;5030581;28;20483;-81
2023/01/13 06:39:48;;;;;;;10.40;2.42;;;;;;;9.67;72.25;98416.66;5013381;28;20503;-82
2023/01/13 06:45:14;;;;;;;12.60;2.20;;;;;;;9.64;72.50;98428.25;4977823;23;20096;-83
2023/01/13 06:47:42;;;;;;;9.70;2.22;;;;;;;9.61;72.02;98418.00;5030020;28;20077;-81
2023/01/13 06:50:09;;;;;;;12.57;2.20;;;;;;;9.59;72.19;98435.63;5031239;28;20057;-80
2023/01/13 06:52:36;;;;;;;14.52;2.70;;;;;;;9.57;72.83;98435.75;5014106;28;20079;-82
2023/01/13 06:55:03;;;;;;;9.57;1.73;;;;;;;9.55;72.92;98436.81;5011410;28;20054;-80
2023/01/13 06:57:29;;;;;;;7.00;2.17;;;;;;;9.54;73.00;98448.28;5011483;28;20045;-81
2023/01/13 06:59:56;;;;;;;10.73;2.22;;;;;;;9.49;72.67;98454.72;4994181;28;20061;-81
2023/01/13 07:02:22;;;;;;;18.50;2.65;;;;;;;9.43;72.08;98444.66;5011370;28;20493;-79
2023/01/13 07:04:49;;;;;;;9.75;2.13;;;;;;;9.42;72.85;98447.41;5025062;28;20085;-79
2023/01/13 07:07:15;;;;;;;12.27;2.78;;;;;;;9.43;73.05;98455.19;5007129;28;20058;-81
2023/01/13 07:09:42;;;;;;;11.15;2.63;;;;;;;9.42;73.56;98450.84;5030752;28;20064;-80
2023/01/13 07:12:09;;;;;;;11.30;2.22;;;;;;;9.45;73.42;98455.03;5030934;28;20054;-81
2023/01/13 07:17:24;;;;;;;11.30;2.22;;;;;;;9.46;73.44;98464.63;5029701;28;20529;-79
2023/01/13 07:19:51;;;;;;;11.45;2.80;;;;;;;9.46;73.70;98457.56;5011729;28;20482;-81
2023/01/13 07:22:17;;;;;;;11.98;2.47;;;;;;;9.47;73.79;98447.91;5012885;28;20494;-80
2023/01/13 07:24:44;;;;;;;15.68;2.72;;;;;;;9.47;73.37;98451.38;5030558;28;20398;-80
2023/01/13 07:27:10;;;;;;;13.77;2.92;;;;;;;9.45;73.71;98469.03;5030651;28;20049;-81
2023/01/13 07:29:37;;;;;;;11.65;2.35;;;;;;;9.42;73.63;98450.03;5030696;28;20119;-80
2023/01/13 07:32:05;;;;;;;14.30;3.13;;;;;;;9.44;73.51;98479.63;5030568;28;20190;-81
2023/01/13 07:34:32;;;;;;;14.68;2.92;;;;;;;9.44;73.24;98466.50;5030412;28;20057;-80
2023/01/13 07:36:59;;;;;;;18.80;3.17;;;;;;;9.44;73.63;98462.09;5030283;28;20060;-79
2023/01/13 07:39:25;;;;;;;12.85;2.92;;;;;;;9.47;73.72;98471.53;5012813;28;20490;-80
2023/01/13 07:44:37;;;;;;;13.82;2.75;;;;;;;9.48;73.33;98475.84;5030647;28;20160;-81
2023/01/13 07:47:04;;;;;;;16.15;3.33;;;;;;;9.46;72.93;98483.81;5030228;28;20494;-81
2023/01/13 07:49:32;;;;;;;14.48;3.00;;;;;;;9.48;73.04;98479.31;5030434;28;20196;-78
2023/01/13 07:51:58;;;;;;;16.75;2.90;;;;;;;9.48;73.23;98475.84;5030408;28;20112;-79
2023/01/13 07:54:25;;;;;;;14.13;3.17;;;;;;;9.51;73.53;98481.72;5033168;28;20073;-78
2023/01/13 07:57:06;;;;;;;13.93;2.75;;;;;;;9.55;73.52;98486.72;5034335;28;20103;-78
2023/01/13 07:59:32;;;;;;;17.17;3.83;;;;;;;9.57;73.78;98483.03;5034426;28;20076;-79
2023/01/13 08:01:59;;;;;;;13.43;2.80;;;;;;;9.59;73.62;98482.94;5034449;28;20057;-79
2023/01/13 08:04:26;;;;;;;16.35;2.97;;;;;;;9.59;73.55;98482.94;5034295;28;20494;-78
2023/01/13 08:06:52;;;;;;;13.85;2.50;;;;;;;9.62;73.66;98485.34;5016623;28;20053;-78
2023/01/13 08:09:19;;;;;;;17.13;2.70;;;;;;;9.63;73.54;98476.50;5034350;28;20057;-78
2023/01/13 08:13:16;;;;;;;19.13;2.80;;;;;;;9.63;72.93;98508.03;5034388;28;20569;-80
2023/01/13 08:14:32;;;;;;;14.13;3.30;;;;;;;9.63;73.03;98487.84;5033901;28;20139;-78
2023/01/13 08:16:58;;;;;;;19.77;2.80;;;;;;;9.67;73.64;98484.97;5034034;28;20057;-78
2023/01/13 08:19:25;;;;;;;12.07;2.63;;;;;;;9.68;73.69;98487.50;5034158;28;20103;-79
2023/01/13 08:21:51;;;;;;;13.68;2.88;;;;;;;9.69;72.78;98491.81;5034117;28;20061;-78
2023/01/13 08:24:17;;;;;;;11.82;2.72;;;;;;;9.70;72.62;98496.13;5034006;28;20057;-78
2023/01/13 08:26:44;;;;;;;12.93;2.80;;;;;;;9.74;73.13;98487.06;5030789;28;20053;-78
2023/01/13 08:29:10;;;;;;;12.85;2.83;;;;;;;9.74;73.09;98488.84;5033455;28;20050;-78
2023/01/13 08:31:40;;;;;;;13.73;3.00;;;;;;;9.75;73.00;98486.09;5033854;28;20104;-78
2023/01/13 08:34:06;;;;;;;19.63;3.25;;;;;;;9.77;72.63;98494.69;5033991;28;20051;-78
2023/01/13 08:36:33;;;;;;;19.75;3.45;;;;;;;9.74;72.09;98479.19;5033513;28;20120;-77
2023/01/13 08:38:59;;;;;;;14.07;3.00;;;;;;;9.74;72.36;98497.56;5033535;28;20053;-78
2023/01/13 08:44:11;;;;;;;15.20;2.92;;;;;;;9.76;72.36;98477.25;5033712;28;20093;-78
2023/01/13 08:46:38;;;;;;;18.02;3.40;;;;;;;9.76;72.02;98487.78;5033430;28;20057;-78
2023/01/13 08:49:04;;;;;;;14.30;2.58;;;;;;;9.77;72.18;98499.94;5033688;28;20096;-77
2023/01/13 08:51:31;;;;;;;13.38;3.28;;;;;;;9.74;72.05;98500.19;5033433;28;20050;-78
2023/01/13 08:53:57;;;;;;;21.17;2.92;;;;;;;9.75;72.14;98495.75;5033375;28;20498;-78
2023/01/13 08:56:24;;;;;;;15.25;3.10;;;;;;;9.76;72.29;98527.19;5033522;28;20061;-78
2023/01/13 08:58:50;;;;;;;18.92;3.33;;;;;;;9.74;70.66;98492.31;5033584;28;20053;-78
2023/01/13 09:01:21;;;;;;;13.25;2.78;;;;;;;9.73;69.68;98490.66;5015915;28;20065;-78
2023/01/13 09:03:48;;;;;;;18.27;3.45;;;;;;;9.76;71.40;98486.94;5033311;28;20141;-78
2023/01/13 09:06:14;;;;;;;12.65;3.15;;;;;;;9.79;71.73;98505.09;5033201;28;20092;-79
2023/01/13 09:08:42;;;;;;;17.33;3.85;;;;;;;9.80;71.45;98508.56;5033098;28;20053;-78
2023/01/13 09:14:03;;;;;;;21.98;4.07;;;;;;;9.81;72.11;98497.94;5033378;28;20061;-78
2023/01/13 09:16:29;;;;;;;13.63;3.05;;;;;;;9.81;71.09;98502.38;5033024;28;20140;-77
2023/01/13 09:18:56;;;;;;;21.58;3.60;;;;;;;9.82;71.43;98519.78;5032857;28;20058;-78
2023/01/13 09:21:25;;;;;;;14.45;2.78;;;;;;;9.77;69.01;98502.56;5032982;28;20080;-79
2023/01/13 09:23:52;;;;;;;19.15;3.35;;;;;;;9.78;70.33;98520.03;5032681;28;20563;-78
2023/01/13 09:26:20;;;;;;;15.23;2.90;;;;;;;9.80;70.61;98521.72;5032534;28;20565;-78
2023/01/13 09:28:46;;;;;;;22.15;3.53;;;;;;;9.84;71.48;98520.53;5032659;28;20463;-78
2023/01/13 09:31:13;;;;;;;15.25;3.78;;;;;;;9.84;71.19;98526.66;5032711;28;20513;-78
2023/01/13 09:36:25;;;;;;;17.23;3.45;;;;;;;9.85;70.59;98532.72;5032922;28;20057;-78
2023/01/13 09:38:51;;;;;;;20.60;3.90;;;;;;;9.85;70.88;98530.94;5032756;28;20156;-78
2023/01/13 09:44:17;;;;;;;19.10;4.15;;;;;;;9.85;67.57;98523.06;5032794;28;20072;-78
2023/01/13 09:46:54;;;;;;;14.68;2.70;;;;;;;9.88;67.83;98522.81;5014684;28;20053;-78
2023/01/13 09:49:33;;;;;;;14.90;2.80;;;;;;;9.91;68.65;98527.03;5032596;28;20514;-78
2023/01/13 09:52:13;;;;;;;15.93;3.28;;;;;;;9.88;68.94;98535.94;5030952;28;20065;-79
2023/01/13 09:54:50;;;;;;;20.48;4.15;;;;;;;9.86;66.34;98537.03;5032583;28;20128;-79
2023/01/13 09:57:18;;;;;;;20.00;3.75;;;;;;;9.89;70.30;98535.03;5032209;28;20055;-78
2023/01/13 09:59:46;;;;;;;19.40;4.03;;;;;;;9.94;71.19;98539.09;5032111;28;20567;-78
2023/01/13 10:02:38;;;;;;;16.77;3.13;;;;;;;9.86;64.99;98552.78;5032121;28;20072;-78
2023/01/13 10:05:11;;;;;;;21.02;3.60;;;;;;;9.98;71.48;98546.63;5032377;28;20097;-79
2023/01/13 10:07:44;;;;;;;22.67;3.75;;;;;;;10.00;68.69;98544.75;5032247;28;20104;-77
2023/01/13 10:10:17;;;;;;;20.13;2.92;;;;;;;10.04;69.62;98559.34;5032308;28;20053;-79
2023/01/13 10:15:31;;;;;;;15.85;2.97;;;;;;;10.12;70.97;98526.34;5031822;28;20053;-78
2023/01/13 10:18:16;;;;;;;20.08;3.33;;;;;;;10.13;66.71;98543.84;5031507;28;20068;-78
2023/01/13 10:21:09;;;;;;;21.20;4.05;;;;;;;10.14;65.13;98530.53;5031930;28;20059;-78
2023/01/13 10:23:42;;;;;;;9.82;3.15;;;;;;;10.24;71.13;98557.00;5031670;28;20060;-78
2023/01/13 10:26:19;;;;;;;;;;;;;;;10.22;63.00;98551.03;5014503;28;20422;-78
2023/01/13 10:28:56;;;;;;;16.02;3.28;;;;;;;10.26;66.71;98520.91;5031663;28;19928;-78
2023/01/13 10:31:24;;;;;;;19.27;3.55;;;;;;;10.32;70.27;98563.47;5031702;28;20096;-79
2023/01/13 10:33:59;;;;;;;16.17;3.10;;;;;;;10.29;67.86;98539.06;5031587;28;20496;-78
2023/01/13 10:36:26;;;;;;;26.58;5.20;;;;;;;10.30;69.87;98538.13;5013893;28;20437;-77
2023/01/13 10:39:05;;;;;;;25.45;4.22;;;;;;;10.30;68.03;98553.91;5031172;28;20576;-78
2023/01/13 10:41:34;;;;;;;19.75;3.75;;;;;;;10.34;70.73;98553.66;5031522;28;20057;-78
2023/01/13 10:44:04;;;;;;;21.27;3.45;;;;;;;10.33;69.04;98555.47;5031064;28;20104;-78
2023/01/13 10:46:49;;;;;;;19.00;3.97;;;;;;;10.33;69.86;98552.84;5030289;28;20399;-77
2023/01/13 10:49:31;;;;;;;18.80;3.28;;;;;;;10.28;66.03;98555.00;5013036;28;20080;-79
2023/01/13 10:52:00;;;;;;;19.50;3.40;;;;;;;10.32;70.14;98552.97;5030640;28;20076;-78
2023/01/13 10:54:27;;;;;;;22.30;3.55;;;;;;;10.30;70.38;98556.56;5030650;28;20136;-79
2023/01/13 10:57:13;;;;;;;12.20;2.60;;;;;;;10.25;66.01;98561.28;5030101;28;20500;-77
2023/01/13 10:59:39;;;;;;;17.95;3.85;;;;;;;10.29;70.78;98567.19;5030406;28;20417;-78
2023/01/13 11:02:15;;;;;;;19.15;3.50;;;;;;;10.25;67.55;98574.44;5030434;28;20313;-78
2023/01/13 11:04:54;;;;;;;21.33;4.22;;;;;;;10.29;69.35;98569.81;5030100;28;20050;-78
2023/01/13 11:07:49;;;;;;;16.35;3.63;;;;;;;10.24;65.97;98570.16;5030074;28;20152;-77
2023/01/13 11:10:23;;;;;;;18.85;3.22;;;;;;;10.29;68.76;98561.91;5030120;28;20054;-78
2023/01/13 11:13:10;;;;;;;13.32;3.08;;;;;;;10.21;66.41;98587.94;5030282;28;20064;-78
2023/01/13 11:16:00;;;;;;;16.70;3.33;;;;;;;10.17;66.61;98587.34;5029817;28;20056;-78
2023/01/13 11:18:35;;;;;;;20.40;3.70;;;;;;;10.15;68.19;98576.94;5019667;28;20119;-78
2023/01/13 11:21:08;;;;;;;17.90;3.63;;;;;;;10.14;69.71;98579.69;5029904;28;20093;-78
2023/01/13 11:23:41;;;;;;;17.90;3.70;;;;;;;10.08;70.56;98572.22;5012521;28;20132;-78
2023/01/13 11:26:15;;;;;;;16.63;3.25;;;;;;;10.02;71.13;98582.25;5012451;28;20057;-78
2023/01/13 11:29:10;;;;;;;16.83;4.47;;;;;;;9.94;70.46;98604.81;5012451;28;20054;-78
2023/01/13 11:31:46;;;;;;;17.10;3.88;;;;;;;9.88;70.97;98590.34;5012371;28;20049;-77
2023/01/13 11:34:21;;;;;;;17.80;4.05;;;;;;;9.81;72.03;98597.81;5029922;28;20057;-77
2023/01/13 11:36:54;;;;;;;19.27;2.97;;;;;;;9.65;71.53;98595.47;5029776;28;20057;-78
2023/01/13 11:39:46;;;;;;;16.75;3.15;;;;;;;9.57;72.48;98603.06;5029975;28;20065;-77
2023/01/13 11:42:38;;;;;;;15.60;3.43;;;;;;;9.49;72.58;98596.56;5029583;28;20195;-78
2023/01/13 11:45:38;;;;;;;16.83;2.92;;;;;;;9.43;73.04;98602.25;4991124;28;1121474;-78
2023/01/13 11:48:13;;;;;;;17.23;3.03;;;;;;;9.41;73.63;98584.94;4986572;28;20060;-78
2023/01/13 11:50:57;;;;;;;16.73;3.15;;;;;;;9.38;74.00;98593.84;5030561;28;20093;-78
2023/01/13 11:53:34;;;;;;;14.18;2.80;;;;;;;9.38;74.18;98594.69;5030780;28;20060;-77
2023/01/13 11:56:28;;;;;;;17.92;3.88;;;;;;;9.37;73.04;98600.06;5030343;28;20486;-78
2023/01/13 11:58:58;;;;;;;12.98;2.72;;;;;;;9.41;75.16;98598.06;5030487;28;20065;-78
2023/01/13 12:01:49;;;;;;;16.55;3.10;;;;;;;9.37;73.22;98610.56;5012768;28;20053;-77
2023/01/13 12:04:41;;;;;;;13.23;2.80;;;;;;;9.41;73.94;98598.88;5012748;28;20433;-78
2023/01/13 12:07:35;;;;;;;16.48;2.97;;;;;;;9.40;73.83;98607.72;5030359;28;20072;-77
2023/01/13 12:10:05;;;;;;;21.20;4.05;;;;;;;9.44;74.22;98616.22;5030649;28;20057;-78
2023/01/13 12:12:53;;;;;;;9.27;2.47;;;;;;;9.46;74.01;98617.78;5030571;28;20149;-77
2023/01/13 12:15:20;;;;;;;13.77;2.97;;;;;;;9.49;74.72;98607.06;5030384;28;20049;-77
2023/01/13 12:18:05;;;;;;;13.05;2.22;;;;;;;9.49;74.08;98596.56;5030203;28;20115;-78
2023/01/13 12:21:02;;;;;;;16.35;3.30;;;;;;;9.48;73.23;98594.03;5030603;28;20057;-78
2023/01/13 12:23:54;;;;;;;12.23;3.28;;;;;;;9.49;73.67;98604.44;5030302;28;20140;-78
2023/01/13 12:26:21;;;;;;;20.13;3.45;;;;;;;9.51;74.88;98610.44;5029803;28;20053;-78
2023/01/13 12:29:00;;;;;;;10.93;3.05;;;;;;;9.51;72.68;98633.22;5030322;28;20085;-79
2023/01/13 12:31:28;;;;;;;14.70;3.30;;;;;;;9.57;74.41;98621.44;5028698;28;20074;-78
2023/01/13 12:34:03;;;;;;;13.70;2.75;;;;;;;9.57;70.60;98624.06;5030050;28;20049;-79
2023/01/13 12:36:48;;;;;;;17.40;2.92;;;;;;;9.61;73.63;98612.41;5029829;28;20526;-78
2023/01/13 12:39:36;;;;;;;15.45;2.25;;;;;;;9.63;70.68;98613.13;5030978;28;20060;-78
2023/01/13 12:49:03;;;;;;;13.20;2.75;;;;;;;9.95;71.56;98631.00;5002372;22;20052;-81
2023/01/13 12:51:54;;;;;;;16.38;3.15;;;;;;;10.05;73.03;98623.25;5013464;28;20057;-81
2023/01/13 12:54:36;;;;;;;12.55;2.80;;;;;;;10.13;69.47;98620.09;5029227;28;20065;-82
2023/01/13 12:57:31;;;;;;;14.68;3.22;;;;;;;10.20;68.41;98644.13;5007175;28;20061;-83
2023/01/13 13:00:03;;;;;;;15.85;3.50;;;;;;;10.30;70.73;98645.13;5029454;28;20060;-82